Time;durP1;ratioP1;P1;durP2;ratioP2;P2;SDS_P1;SDS_P2;PMS_P1;PMS_P2;Temp;Humidity;BMP_temperature;BMP_pressure;BME280_temperature;BME280_humidity;BME280_pressure;Samples;Min_cycle;Max_cycle;Signal;HPM_P1;HPM_P2
2022/08/07 00:01:54;;;;;;;5.78;0.80;;;17.00;53.20;;;;;;5070320;28;20203;-44
2022/08/07 00:04:25;;;;;;;3.00;0.77;;;17.00;53.20;;;;;;5070513;28;20215;-45
2022/08/07 00:06:55;;;;;;;1.63;0.40;;;17.00;53.10;;;;;;5070389;28;20210;-45
2022/08/07 00:09:26;;;;;;;0.75;0.50;;;17.10;53.20;;;;;;5070426;28;20797;-44
2022/08/07 00:11:59;;;;;;;0.93;0.47;;;17.10;53.20;;;;;;5072693;28;20230;-44
2022/08/07 00:14:30;;;;;;;2.00;0.50;;;17.10;53.30;;;;;;5072485;28;20223;-44
2022/08/07 00:17:01;;;;;;;2.60;0.60;;;17.10;53.30;;;;;;5063789;28;20196;-45
2022/08/07 00:19:33;;;;;;;2.20;0.55;;;17.10;53.30;;;;;;5058942;28;20590;-45
2022/08/07 00:22:03;;;;;;;0.55;0.40;;;17.20;53.30;;;;;;5073489;28;20689;-45
2022/08/07 00:24:34;;;;;;;1.83;0.60;;;17.20;53.40;;;;;;5074231;28;20218;-45
2022/08/07 00:27:07;;;;;;;0.60;0.55;;;17.20;53.40;;;;;;5073691;28;20228;-45
2022/08/07 00:29:37;;;;;;;1.15;0.70;;;17.30;53.40;;;;;;5073942;28;20220;-45
2022/08/07 00:32:10;;;;;;;0.65;0.40;;;17.30;53.40;;;;;;5072570;28;20548;-45
2022/08/07 00:34:41;;;;;;;1.20;0.60;;;17.30;53.30;;;;;;5074025;28;21145;-45
2022/08/07 00:37:11;;;;;;;1.42;0.73;;;17.30;53.30;;;;;;5073132;28;20217;-45
2022/08/07 00:39:42;;;;;;;1.48;0.50;;;17.30;53.30;;;;;;5073984;28;20682;-45
2022/08/07 00:42:15;;;;;;;0.80;0.47;;;17.30;53.40;;;;;;5073621;28;20195;-44
2022/08/07 00:44:45;;;;;;;0.63;0.47;;;17.40;53.40;;;;;;5073242;28;20211;-37
2022/08/07 00:47:16;;;;;;;3.25;0.93;;;17.40;53.40;;;;;;5073441;28;20553;-37
2022/08/07 00:49:47;;;;;;;0.65;0.50;;;17.40;53.50;;;;;;5073153;28;20195;-37
2022/08/07 00:52:18;;;;;;;1.08;0.65;;;17.40;53.40;;;;;;5073744;28;20206;-38
2022/08/07 00:54:48;;;;;;;0.70;0.68;;;17.40;53.50;;;;;;5072733;28;20226;-42
2022/08/07 00:57:22;;;;;;;0.90;0.50;;;17.50;53.40;;;;;;5072763;28;20655;-43
2022/08/07 00:59:53;;;;;;;1.27;0.32;;;17.50;53.40;;;;;;5072916;28;20244;-37
2022/08/07 01:02:25;;;;;;;0.90;0.40;;;17.50;53.40;;;;;;5072840;28;20210;-44
2022/08/07 01:04:56;;;;;;;1.25;0.50;;;17.50;53.40;;;;;;5072476;28;20714;-37
2022/08/07 01:07:27;;;;;;;1.42;0.50;;;17.60;53.50;;;;;;5073638;28;20194;-37
2022/08/07 01:09:58;;;;;;;0.57;0.52;;;17.60;53.50;;;;;;5073290;28;20562;-36
2022/08/07 01:12:31;;;;;;;0.55;0.30;;;17.60;53.50;;;;;;5072467;28;20195;-37
2022/08/07 01:15:02;;;;;;;2.30;0.50;;;17.60;53.50;;;;;;5072874;28;20227;-40
2022/08/07 01:17:34;;;;;;;1.08;0.38;;;17.60;53.50;;;;;;5071287;28;20191;-36
2022/08/07 01:20:09;;;;;;;0.88;0.50;;;17.70;53.50;;;;;;5072011;28;20681;-37
2022/08/07 01:22:43;;;;;;;1.25;0.60;;;17.70;53.50;;;;;;5071028;28;20198;-36
2022/08/07 01:25:14;;;;;;;0.85;0.50;;;17.70;53.50;;;;;;5071583;28;20549;-40
2022/08/07 01:27:45;;;;;;;1.23;0.28;;;17.70;53.50;;;;;;5072504;28;20198;-37
2022/08/07 01:30:16;;;;;;;0.68;0.30;;;17.80;53.50;;;;;;5073166;28;20192;-41
2022/08/07 01:32:46;;;;;;;0.80;0.40;;;17.80;53.40;;;;;;5072175;28;20214;-39
2022/08/07 01:35:17;;;;;;;0.52;0.30;;;17.80;53.30;;;;;;5072412;28;20225;-39
2022/08/07 01:37:50;;;;;;;0.60;0.40;;;17.90;53.30;;;;;;5073085;28;20190;-37
2022/08/07 01:40:24;;;;;;;0.43;0.30;;;17.90;53.30;;;;;;5072999;28;20205;-41
2022/08/07 01:42:55;;;;;;;0.40;0.40;;;17.90;53.20;;;;;;5072714;28;20202;-37
2022/08/07 01:45:26;;;;;;;0.60;0.30;;;18.00;53.20;;;;;;5072399;28;20210;-37
2022/08/07 01:47:56;;;;;;;0.57;0.40;;;18.00;53.20;;;;;;5071596;28;20393;-38
2022/08/07 01:50:28;;;;;;;0.50;0.40;;;17.90;53.20;;;;;;5071852;28;20190;-37
2022/08/07 01:53:02;;;;;;;0.50;0.32;;;18.00;53.30;;;;;;5072629;28;20194;-44
2022/08/07 01:55:39;;;;;;;0.98;0.40;;;18.00;53.20;;;;;;5072547;28;20249;-42
2022/08/07 01:58:12;;;;;;;0.82;0.40;;;18.00;53.20;;;;;;5072389;28;20655;-39
2022/08/07 02:00:45;;;;;;;0.32;0.30;;;18.10;53.20;;;;;;5072311;28;20221;-37
2022/08/07 02:03:20;;;;;;;0.35;0.35;;;18.10;53.20;;;;;;5071845;28;20198;-37
2022/08/07 02:05:53;;;;;;;0.40;0.40;;;18.10;53.20;;;;;;5072362;28;20210;-37
2022/08/07 02:08:28;;;;;;;1.73;0.60;;;18.10;53.10;;;;;;5072208;28;20190;-37
2022/08/07 02:10:59;;;;;;;1.10;0.38;;;18.10;53.10;;;;;;5072002;28;20198;-37
2022/08/07 02:13:33;;;;;;;0.50;0.30;;;18.20;53.00;;;;;;5071711;28;20191;-37
2022/08/07 02:16:05;;;;;;;1.08;0.40;;;18.20;53.00;;;;;;5071880;28;20237;-37
2022/08/07 02:18:39;;;;;;;0.50;0.35;;;18.10;52.90;;;;;;5071565;28;20191;-37
2022/08/07 02:21:11;;;;;;;1.23;0.50;;;18.20;52.90;;;;;;5071955;28;20210;-37
2022/08/07 02:23:44;;;;;;;0.50;0.40;;;18.20;53.00;;;;;;5071922;28;20654;-38
2022/08/07 02:26:16;;;;;;;0.28;0.28;;;18.20;53.00;;;;;;5071683;28;20234;-37
2022/08/07 02:28:48;;;;;;;0.57;0.38;;;18.20;52.90;;;;;;5071434;28;20195;-41
2022/08/07 02:31:20;;;;;;;0.40;0.30;;;18.20;52.90;;;;;;5071637;28;20191;-37
2022/08/07 02:33:53;;;;;;;0.80;0.50;;;18.30;53.00;;;;;;5071540;28;20199;-41
2022/08/07 02:36:24;;;;;;;2.40;0.50;;;18.30;53.00;;;;;;5071135;28;20229;-37
2022/08/07 02:38:58;;;;;;;0.85;0.40;;;18.30;53.00;;;;;;5071170;28;20202;-40
2022/08/07 02:41:30;;;;;;;0.52;0.43;;;18.30;53.00;;;;;;5071416;28;20285;-37
2022/08/07 02:44:02;;;;;;;1.80;0.60;;;18.30;53.00;;;;;;5071783;28;20198;-37
2022/08/07 02:46:35;;;;;;;1.48;0.60;;;18.30;53.10;;;;;;5071658;28;20195;-38
2022/08/07 02:49:06;;;;;;;1.38;0.40;;;18.30;53.10;;;;;;5071454;28;20205;-37
2022/08/07 02:51:38;;;;;;;1.08;0.60;;;18.30;53.20;;;;;;5071483;28;20195;-37
2022/08/07 02:54:13;;;;;;;1.45;0.82;;;18.30;53.30;;;;;;5066244;28;20226;-37
2022/08/07 02:56:45;;;;;;;0.45;0.40;;;18.30;53.30;;;;;;5071340;28;20538;-38
2022/08/07 02:59:19;;;;;;;0.40;0.40;;;18.30;53.30;;;;;;5067393;28;20199;-37
2022/08/07 03:01:51;;;;;;;0.93;0.57;;;18.30;53.30;;;;;;5051019;28;20217;-37
2022/08/07 03:04:22;;;;;;;0.70;0.50;;;18.30;53.40;;;;;;5076921;28;20233;-42
2022/08/07 03:06:54;;;;;;;1.63;0.70;;;18.40;53.40;;;;;;5090950;28;20191;-45
2022/08/07 03:09:27;;;;;;;0.85;0.70;;;18.40;53.50;;;;;;5091004;28;20194;-37
2022/08/07 03:11:58;;;;;;;1.23;0.80;;;18.40;53.50;;;;;;5083421;28;20214;-37
2022/08/07 03:14:30;;;;;;;1.55;0.60;;;18.30;53.50;;;;;;5070441;28;20214;-37
2022/08/07 03:17:01;;;;;;;1.20;0.75;;;18.30;53.50;;;;;;5070829;28;20205;-37
2022/08/07 03:19:32;;;;;;;0.80;0.70;;;18.30;54.20;;;;;;5071046;28;20217;-37
2022/08/07 03:22:03;;;;;;;1.42;0.80;;;18.30;53.70;;;;;;5070216;28;20195;-37
2022/08/07 03:24:37;;;;;;;1.13;0.80;;;18.30;53.70;;;;;;5069925;28;20214;-37
2022/08/07 03:27:09;;;;;;;1.55;1.05;;;18.30;53.70;;;;;;5070789;28;20206;-40
2022/08/07 03:29:43;;;;;;;1.60;0.60;;;18.20;53.80;;;;;;5070486;28;20678;-42
2022/08/07 03:32:17;;;;;;;2.20;0.90;;;18.30;53.80;;;;;;5069171;28;20202;-37
2022/08/07 03:34:50;;;;;;;1.38;1.10;;;18.30;53.80;;;;;;5071197;28;20674;-39
2022/08/07 03:37:22;;;;;;;1.88;1.33;;;18.30;53.80;;;;;;5069748;28;20195;-38
2022/08/07 03:39:56;;;;;;;1.25;1.05;;;18.20;53.80;;;;;;5069620;28;20198;-38
2022/08/07 03:42:27;;;;;;;1.65;1.50;;;18.30;54.00;;;;;;5069736;28;20199;-40
2022/08/07 03:44:58;;;;;;;2.67;1.40;;;18.30;54.00;;;;;;5085755;28;20222;-38
2022/08/07 03:47:30;;;;;;;1.85;1.20;;;18.30;54.00;;;;;;5093445;28;20669;-37
2022/08/07 03:50:01;;;;;;;2.05;1.30;;;18.20;54.00;;;;;;5070447;28;20201;-37
2022/08/07 03:52:33;;;;;;;2.35;1.52;;;18.20;54.00;;;;;;5074812;28;20195;-39
2022/08/07 03:55:06;;;;;;;2.95;1.35;;;18.30;54.00;;;;;;5073549;28;20218;-39
2022/08/07 03:57:38;;;;;;;3.45;1.50;;;18.20;54.10;;;;;;5074600;28;20670;-38
2022/08/07 04:00:10;;;;;;;2.10;1.20;;;18.20;54.00;;;;;;5074812;28;20199;-39
2022/08/07 04:02:41;;;;;;;2.10;1.45;;;18.20;54.00;;;;;;5073053;28;20573;-40
2022/08/07 04:05:12;;;;;;;1.25;1.13;;;18.20;54.00;;;;;;5073581;28;20210;-42
2022/08/07 04:07:48;;;;;;;2.38;1.17;;;18.20;54.00;;;;;;5072893;28;20195;-39
2022/08/07 04:10:21;;;;;;;2.63;1.40;;;18.20;54.00;;;;;;5074281;28;20664;-55
2022/08/07 04:12:53;;;;;;;1.27;1.05;;;18.20;54.00;;;;;;5073570;28;20298;-44
2022/08/07 04:15:24;;;;;;;2.40;1.30;;;18.20;54.00;;;;;;5073918;28;20222;-40
2022/08/07 04:17:55;;;;;;;2.67;1.40;;;18.20;54.00;;;;;;5073946;28;20198;-46
2022/08/07 04:20:26;;;;;;;1.30;1.00;;;18.10;53.90;;;;;;5074024;28;20198;-52
2022/08/07 04:22:57;;;;;;;1.92;1.45;;;18.10;54.10;;;;;;5073566;28;20199;-51
2022/08/07 04:25:31;;;;;;;1.80;1.20;;;18.10;54.00;;;;;;5072704;28;20207;-46
2022/08/07 04:28:03;;;;;;;2.47;1.40;;;18.10;54.10;;;;;;5073024;28;20199;-53
2022/08/07 04:30:34;;;;;;;2.50;1.35;;;18.00;54.00;;;;;;5072983;28;20198;-48
2022/08/07 04:33:09;;;;;;;2.17;1.33;;;18.00;54.00;;;;;;5072562;28;20205;-43
2022/08/07 04:35:40;;;;;;;1.52;1.30;;;18.00;54.00;;;;;;5072937;28;20229;-41
2022/08/07 04:38:11;;;;;;;2.00;1.30;;;18.00;54.00;;;;;;5074222;28;20199;-50
2022/08/07 04:40:45;;;;;;;1.27;1.17;;;18.00;54.00;;;;;;5073399;28;20191;-39
2022/08/07 04:43:18;;;;;;;2.10;1.60;;;17.90;54.00;;;;;;5073236;28;20602;-47
2022/08/07 04:45:55;;;;;;;1.77;1.30;;;17.90;54.00;;;;;;5072999;28;20215;-44
2022/08/07 04:48:33;;;;;;;1.70;1.50;;;17.90;54.00;;;;;;5066205;28;20557;-41
2022/08/07 04:51:09;;;;;;;1.75;1.40;;;17.80;54.00;;;;;;5053010;28;20199;-49
2022/08/07 04:53:48;;;;;;;2.13;1.75;;;17.80;53.90;;;;;;5055013;28;20195;-50
2022/08/07 04:56:27;;;;;;;1.40;1.30;;;17.80;54.00;;;;;;5072896;28;20234;-48
2022/08/07 04:59:04;;;;;;;1.38;1.27;;;17.70;54.00;;;;;;5072266;28;20187;-39
2022/08/07 05:01:42;;;;;;;2.40;1.60;;;17.70;54.00;;;;;;5072509;28;20198;-45
2022/08/07 05:04:17;;;;;;;1.40;1.30;;;17.70;54.00;;;;;;5072014;28;20210;-51
2022/08/07 05:06:59;;;;;;;2.00;1.40;;;17.70;54.00;;;;;;5072842;28;20199;-47
2022/08/07 05:09:34;;;;;;;1.65;1.27;;;17.60;54.00;;;;;;5072042;28;20194;-49
2022/08/07 05:12:09;;;;;;;2.20;1.50;;;17.60;54.00;;;;;;5073154;28;20560;-43
2022/08/07 05:14:44;;;;;;;1.75;1.35;;;17.60;54.00;;;;;;5072141;28;20210;-51
2022/08/07 05:17:19;;;;;;;2.00;1.40;;;17.50;54.00;;;;;;5072636;28;20223;-39
2022/08/07 05:19:52;;;;;;;2.10;1.40;;;17.50;54.10;;;;;;5071725;28;20187;-39
2022/08/07 05:22:25;;;;;;;2.25;1.30;;;17.50;54.10;;;;;;5072406;28;20203;-41
2022/08/07 05:24:57;;;;;;;1.65;1.05;;;17.50;54.10;;;;;;5074264;28;20210;-41
2022/08/07 05:27:31;;;;;;;1.45;1.35;;;17.40;54.10;;;;;;5071694;28;20221;-38
2022/08/07 05:30:03;;;;;;;1.40;1.30;;;17.40;54.20;;;;;;5071955;28;20572;-37
2022/08/07 05:32:34;;;;;;;1.27;1.17;;;17.40;54.20;;;;;;5072749;28;20205;-38
2022/08/07 05:35:06;;;;;;;1.90;1.30;;;17.40;54.20;;;;;;5071772;28;20229;-43
2022/08/07 05:37:37;;;;;;;1.63;1.40;;;17.40;54.20;;;;;;5052668;28;20211;-38
2022/08/07 05:40:10;;;;;;;1.27;1.10;;;17.30;54.20;;;;;;5063329;28;20197;-38
2022/08/07 05:42:43;;;;;;;1.30;1.00;;;17.30;54.10;;;;;;5071537;28;20196;-39
2022/08/07 05:45:14;;;;;;;1.52;1.30;;;17.30;54.20;;;;;;5071435;28;20219;-48
2022/08/07 05:47:45;;;;;;;1.23;1.10;;;17.20;54.20;;;;;;5070212;28;20210;-41
2022/08/07 05:50:16;;;;;;;2.30;1.27;;;17.20;54.20;;;;;;5075136;28;20196;-37
2022/08/07 05:52:47;;;;;;;1.40;1.17;;;17.20;54.30;;;;;;5092311;28;20198;-38
2022/08/07 05:55:17;;;;;;;1.58;1.20;;;17.10;54.20;;;;;;5091340;28;20217;-37
2022/08/07 05:57:51;;;;;;;1.77;1.10;;;17.10;54.30;;;;;;5075024;28;20199;-38
2022/08/07 06:00:23;;;;;;;1.23;1.13;;;17.00;54.30;;;;;;5072283;28;20202;-38
2022/08/07 06:02:55;;;;;;;1.55;1.30;;;17.10;54.30;;;;;;5070954;28;20674;-38
2022/08/07 06:05:27;;;;;;;1.17;1.08;;;17.00;54.30;;;;;;5071330;28;20234;-38
2022/08/07 06:07:59;;;;;;;2.28;1.00;;;17.00;54.30;;;;;;5071345;28;20290;-38
2022/08/07 06:10:30;;;;;;;1.88;1.42;;;16.90;54.30;;;;;;5081947;28;20198;-38
2022/08/07 06:13:04;;;;;;;1.40;1.17;;;16.90;54.30;;;;;;5092182;28;20202;-40
2022/08/07 06:15:37;;;;;;;1.63;1.20;;;16.90;54.30;;;;;;5090765;28;20692;-37
2022/08/07 06:18:09;;;;;;;1.10;1.00;;;16.90;54.30;;;;;;5092197;28;20194;-37
2022/08/07 06:20:41;;;;;;;1.17;1.08;;;16.80;54.30;;;;;;5091432;28;20190;-43
2022/08/07 06:23:12;;;;;;;1.05;0.95;;;16.80;54.30;;;;;;5092143;28;20201;-38
2022/08/07 06:25:44;;;;;;;1.13;1.02;;;16.80;54.30;;;;;;5090853;28;20689;-38
2022/08/07 06:28:16;;;;;;;1.30;1.20;;;16.70;54.30;;;;;;5051837;28;20195;-42
2022/08/07 06:30:47;;;;;;;1.30;1.20;;;16.70;54.30;;;;;;5065418;28;20186;-38
2022/08/07 06:33:19;;;;;;;1.50;1.10;;;16.70;54.30;;;;;;5070538;28;20206;-42
2022/08/07 06:35:49;;;;;;;1.20;1.10;;;16.70;54.30;;;;;;5071810;28;20638;-38
2022/08/07 06:38:20;;;;;;;1.30;1.00;;;16.70;54.40;;;;;;5071302;28;20552;-38
2022/08/07 06:40:54;;;;;;;0.90;0.90;;;16.60;54.30;;;;;;5071190;28;20187;-38
2022/08/07 06:43:27;;;;;;;1.40;1.30;;;16.60;54.30;;;;;;5070438;28;20198;-38
2022/08/07 06:45:58;;;;;;;0.90;0.90;;;16.60;54.30;;;;;;5070769;28;20211;-38
2022/08/07 06:48:29;;;;;;;1.00;0.90;;;16.60;54.30;;;;;;5062514;28;20188;-38
2022/08/07 06:51:06;;;;;;;1.00;0.90;;;16.50;54.40;;;;;;5078942;28;20190;-38
2022/08/07 06:53:38;;;;;;;1.58;1.10;;;16.50;54.40;;;;;;5091018;28;20662;-38
2022/08/07 06:56:11;;;;;;;1.05;0.95;;;16.60;54.50;;;;;;5086834;28;20237;-38
2022/08/07 06:58:44;;;;;;;1.13;1.02;;;16.50;54.50;;;;;;5071196;28;20199;-38
2022/08/07 07:01:16;;;;;;;1.20;1.10;;;16.50;54.50;;;;;;5071046;28;20210;-38
2022/08/07 07:03:47;;;;;;;1.40;1.00;;;16.50;54.50;;;;;;5070336;28;20199;-38
2022/08/07 07:06:18;;;;;;;1.00;1.00;;;16.50;54.50;;;;;;5070932;28;20692;-38
2022/08/07 07:08:49;;;;;;;1.10;1.00;;;16.40;54.40;;;;;;5071047;28;20206;-37
2022/08/07 07:11:20;;;;;;;0.90;0.80;;;16.50;54.40;;;;;;5069735;28;20197;-38
2022/08/07 07:13:55;;;;;;;1.52;1.20;;;16.40;55.00;;;;;;5070753;28;20191;-43
2022/08/07 07:16:31;;;;;;;1.67;0.90;;;16.40;54.40;;;;;;5070616;28;20222;-38
2022/08/07 07:19:06;;;;;;;1.42;1.00;;;16.40;54.40;;;;;;5070250;28;20190;-37
2022/08/07 07:21:40;;;;;;;1.33;1.20;;;16.40;54.40;;;;;;5069518;28;20190;-37
2022/08/07 07:24:12;;;;;;;1.65;1.30;;;16.30;54.30;;;;;;5070098;28;20198;-40
2022/08/07 07:26:45;;;;;;;1.30;1.20;;;16.30;54.40;;;;;;5070209;28;20202;-39
2022/08/07 07:29:19;;;;;;;1.20;1.10;;;16.30;54.40;;;;;;5069810;28;20191;-37
2022/08/07 07:31:54;;;;;;;1.70;1.20;;;16.20;54.40;;;;;;5070822;28;20194;-38
2022/08/07 07:34:29;;;;;;;1.40;1.20;;;16.20;54.40;;;;;;5069604;28;20195;-38
2022/08/07 07:37:03;;;;;;;1.20;1.10;;;16.20;54.40;;;;;;5070905;28;20612;-41
2022/08/07 07:39:35;;;;;;;1.55;1.17;;;16.20;54.40;;;;;;5070673;28;20194;-38
2022/08/07 07:42:09;;;;;;;1.30;1.20;;;16.20;54.40;;;;;;5070757;28;20201;-38
2022/08/07 07:44:45;;;;;;;1.35;1.25;;;16.10;54.30;;;;;;5070050;28;20213;-38
2022/08/07 07:47:18;;;;;;;1.20;1.08;;;16.10;54.30;;;;;;5049649;28;20203;-37
2022/08/07 07:49:50;;;;;;;2.15;1.30;;;16.10;54.40;;;;;;5068659;28;20553;-42
2022/08/07 07:52:23;;;;;;;1.50;1.38;;;16.10;54.40;;;;;;5070258;28;20191;-38
2022/08/07 07:54:55;;;;;;;1.50;1.40;;;16.00;54.30;;;;;;5070456;28;20226;-38
2022/08/07 07:57:26;;;;;;;1.65;1.35;;;16.10;54.50;;;;;;5070737;28;20242;-39
2022/08/07 08:00:00;;;;;;;2.22;1.50;;;16.00;54.40;;;;;;5070715;28;20199;-38
2022/08/07 08:02:34;;;;;;;2.20;1.40;;;16.00;54.50;;;;;;5070514;28;20207;-38
2022/08/07 08:05:06;;;;;;;1.52;1.40;;;16.00;54.50;;;;;;5069775;28;20206;-37
2022/08/07 08:07:39;;;;;;;2.00;1.60;;;16.00;54.50;;;;;;5070642;28;20202;-38
2022/08/07 08:10:11;;;;;;;1.38;1.25;;;15.90;54.40;;;;;;5070897;28;20195;-38
2022/08/07 08:12:42;;;;;;;1.52;1.40;;;15.90;54.40;;;;;;5070766;28;20198;-38
2022/08/07 08:15:15;;;;;;;1.42;1.20;;;15.90;54.40;;;;;;5070744;28;20215;-38
2022/08/07 08:17:47;;;;;;;1.83;1.48;;;15.90;54.40;;;;;;5070388;28;20706;-38
2022/08/07 08:20:19;;;;;;;1.63;1.33;;;15.90;54.40;;;;;;5070895;28;20202;-38
2022/08/07 08:28:29;;;;;;;1.98;1.40;;;15.80;54.40;;;;;;5070385;28;20206;-38
2022/08/07 08:31:03;;;;;;;1.70;1.38;;;15.80;54.40;;;;;;5070483;28;20195;-38
2022/08/07 08:33:36;;;;;;;1.40;1.30;;;15.80;54.40;;;;;;5072393;28;20198;-39
2022/08/07 08:36:10;;;;;;;1.88;1.65;;;15.80;55.10;;;;;;5074792;28;20214;-41
2022/08/07 08:38:46;;;;;;;1.42;1.33;;;15.70;54.50;;;;;;5073466;28;20195;-38
2022/08/07 08:41:24;;;;;;;1.98;1.20;;;15.70;54.50;;;;;;5073646;28;20249;-39
2022/08/07 08:44:04;;;;;;;1.52;1.40;;;15.70;54.40;;;;;;5074108;28;20197;-38
2022/08/07 08:46:47;;;;;;;1.40;1.30;;;15.70;54.40;;;;;;5073824;28;20241;-38
2022/08/07 08:49:26;;;;;;;2.28;1.50;;;15.70;54.50;;;;;;5073630;28;20720;-44
2022/08/07 08:52:04;;;;;;;1.35;1.25;;;15.60;54.40;;;;;;5074432;28;20195;-38
2022/08/07 08:54:40;;;;;;;1.70;1.20;;;15.60;54.40;;;;;;5073934;28;20704;-41
2022/08/07 08:57:15;;;;;;;1.50;1.30;;;15.60;54.50;;;;;;5073786;28;20702;-37
2022/08/07 08:59:52;;;;;;;1.52;1.13;;;15.60;54.50;;;;;;5073343;28;20685;-38
2022/08/07 09:02:32;;;;;;;1.60;1.30;;;15.60;54.50;;;;;;5073365;28;20202;-38
2022/08/07 09:05:15;;;;;;;1.48;1.38;;;15.60;54.50;;;;;;5068102;28;20250;-38
2022/08/07 09:07:50;;;;;;;1.70;1.20;;;15.60;54.60;;;;;;5071344;28;20205;-38
2022/08/07 09:10:26;;;;;;;1.48;1.25;;;15.50;54.60;;;;;;5080108;28;20186;-38
2022/08/07 09:13:05;;;;;;;2.03;1.30;;;15.60;54.60;;;;;;5070718;28;20195;-38
2022/08/07 09:15:45;;;;;;;1.73;1.27;;;15.60;54.60;;;;;;5064408;28;20211;-37
2022/08/07 09:18:42;;;;;;;2.28;1.45;;;15.50;54.60;;;;;;5072601;28;20585;-43
2022/08/07 09:21:28;;;;;;;1.67;1.40;;;15.50;54.60;;;;;;5072626;28;20206;-37
2022/08/07 09:24:07;;;;;;;1.55;1.38;;;15.50;54.60;;;;;;5062782;28;20575;-38
2022/08/07 09:26:47;;;;;;;1.52;1.27;;;15.50;54.60;;;;;;5079545;28;20289;-38
2022/08/07 09:29:26;;;;;;;1.80;1.15;;;15.50;54.60;;;;;;5072796;28;20213;-38
2022/08/07 09:32:08;;;;;;;2.30;1.38;;;15.50;54.60;;;;;;5072583;28;20191;-38
2022/08/07 09:34:52;;;;;;;1.40;1.30;;;15.40;54.60;;;;;;5072122;28;20268;-38
2022/08/07 09:37:30;;;;;;;1.50;1.40;;;15.40;54.60;;;;;;5064211;28;20238;-43
2022/08/07 09:40:07;;;;;;;1.40;1.30;;;15.40;54.60;;;;;;5055747;28;20236;-38
2022/08/07 09:42:50;;;;;;;1.52;1.33;;;15.40;54.60;;;;;;5072118;28;20194;-39
2022/08/07 09:45:30;;;;;;;1.70;1.60;;;15.40;54.60;;;;;;5071677;28;20218;-38
2022/08/07 09:48:24;;;;;;;1.92;1.40;;;15.40;54.60;;;;;;5071852;28;20206;-38
2022/08/07 09:51:24;;;;;;;1.40;1.30;;;15.40;54.60;;;;;;5072004;28;20191;-43
2022/08/07 09:54:00;;;;;;;1.40;1.30;;;15.30;54.60;;;;;;5071665;28;20255;-38
2022/08/07 09:56:59;;;;;;;1.90;1.20;;;15.30;54.60;;;;;;5072259;28;20214;-40
2022/08/07 09:59:43;;;;;;;1.20;1.10;;;15.40;54.60;;;;;;5059873;28;20195;-40
2022/08/07 10:02:32;;;;;;;1.20;1.10;;;15.30;54.60;;;;;;5052507;28;20199;-37
2022/08/07 10:05:24;;;;;;;1.13;1.00;;;15.30;54.70;;;;;;5053034;28;20224;-38
2022/08/07 10:08:11;;;;;;;1.52;1.38;;;15.30;54.60;;;;;;5071964;28;20202;-38
2022/08/07 10:10:50;;;;;;;1.17;1.08;;;15.30;54.70;;;;;;5077946;28;20179;-37
2022/08/07 10:13:42;;;;;;;1.20;1.10;;;15.30;54.60;;;;;;5081805;28;20245;-39
2022/08/07 10:16:31;;;;;;;2.05;1.40;;;15.30;54.60;;;;;;5071473;28;20210;-45
2022/08/07 10:19:19;;;;;;;1.85;1.30;;;15.30;54.70;;;;;;5071654;28;20199;-40
2022/08/07 10:22:04;;;;;;;1.55;1.40;;;15.30;54.70;;;;;;5066709;28;20191;-43
2022/08/07 10:24:52;;;;;;;1.63;1.33;;;15.30;54.70;;;;;;5070765;28;20199;-38
2022/08/07 10:27:43;;;;;;;1.55;1.20;;;15.20;54.70;;;;;;5076780;28;20222;-38
2022/08/07 10:30:17;;;;;;;2.25;1.38;;;15.20;54.70;;;;;;5071194;28;20221;-38
2022/08/07 10:33:24;;;;;;;1.20;1.10;;;15.20;54.70;;;;;;5071234;28;20198;-38
2022/08/07 10:36:14;;;;;;;1.80;1.60;;;15.20;54.70;;;;;;5070048;28;20302;-38
2022/08/07 10:38:58;;;;;;;1.40;1.05;;;15.20;54.70;;;;;;5069721;28;20218;-38
2022/08/07 10:41:36;;;;;;;1.40;1.30;;;15.20;54.70;;;;;;5070293;28;20195;-38
2022/08/07 10:44:13;;;;;;;1.40;1.30;;;15.20;54.70;;;;;;5070364;28;20191;-38
2022/08/07 10:46:51;;;;;;;1.48;1.30;;;15.20;55.30;;;;;;5050163;28;20595;-37
2022/08/07 10:49:30;;;;;;;1.48;1.38;;;15.20;54.70;;;;;;5049729;28;20675;-38
2022/08/07 10:52:08;;;;;;;1.27;1.17;;;15.20;54.70;;;;;;5050214;28;20208;-37
2022/08/07 10:54:46;;;;;;;1.38;1.10;;;15.20;54.70;;;;;;5050053;28;20202;-38
2022/08/07 10:57:28;;;;;;;1.60;1.20;;;15.20;54.80;;;;;;5062182;28;20221;-38
2022/08/07 11:00:09;;;;;;;1.75;1.20;;;15.10;54.70;;;;;;5069355;28;20663;-38
2022/08/07 11:02:51;;;;;;;1.45;1.20;;;15.10;54.80;;;;;;5069264;28;20612;-38
2022/08/07 11:05:33;;;;;;;1.48;1.20;;;15.10;54.80;;;;;;5069419;28;20214;-37
2022/08/07 11:08:14;;;;;;;1.23;1.13;;;15.10;54.70;;;;;;5070069;28;20205;-38
2022/08/07 11:10:50;;;;;;;1.85;1.00;;;15.10;54.80;;;;;;5069799;28;20197;-37
2022/08/07 11:13:32;;;;;;;1.17;1.08;;;15.10;54.70;;;;;;5070211;28;20588;-37
2022/08/07 11:16:07;;;;;;;1.27;1.17;;;15.10;54.80;;;;;;5083342;28;20225;-37
2022/08/07 11:18:43;;;;;;;1.63;1.23;;;15.10;54.70;;;;;;5089522;28;20275;-37
2022/08/07 11:21:27;;;;;;;1.20;1.10;;;15.10;55.40;;;;;;5089701;28;20715;-38
2022/08/07 11:24:05;;;;;;;1.38;1.23;;;15.10;54.80;;;;;;5089429;28;20190;-38
2022/08/07 11:26:42;;;;;;;2.00;1.45;;;15.10;54.80;;;;;;5082684;28;20218;-37
2022/08/07 11:29:21;;;;;;;1.30;1.20;;;15.00;54.70;;;;;;5069565;28;20201;-42
2022/08/07 11:31:57;;;;;;;1.20;1.10;;;15.00;54.80;;;;;;5069979;28;20198;-38
2022/08/07 11:34:35;;;;;;;1.83;1.20;;;15.00;54.80;;;;;;5069937;28;20195;-38
2022/08/07 11:37:12;;;;;;;1.25;1.10;;;15.00;54.80;;;;;;5069716;28;20206;-38
2022/08/07 11:40:00;;;;;;;1.77;0.98;;;15.00;54.80;;;;;;5069513;28;20194;-38
2022/08/07 11:42:41;;;;;;;1.30;1.20;;;15.00;54.80;;;;;;5068898;28;20927;-38
2022/08/07 11:45:26;;;;;;;1.30;1.10;;;15.00;54.80;;;;;;5069454;28;20822;-38
2022/08/07 11:48:32;;;;;;;1.60;1.08;;;15.00;54.80;;;;;;5069523;28;20201;-38
2022/08/07 11:51:19;;;;;;;1.52;1.30;;;15.00;54.70;;;;;;5069589;28;20198;-37
2022/08/07 11:54:09;;;;;;;1.35;1.10;;;15.00;54.60;;;;;;5069605;28;20229;-37
2022/08/07 11:56:55;;;;;;;1.90;1.08;;;15.00;54.70;;;;;;5069234;28;20223;-38
2022/08/07 12:00:00;;;;;;;1.73;1.20;;;15.00;54.70;;;;;;5069426;28;20194;-38
2022/08/07 12:02:53;;;;;;;1.52;1.10;;;14.90;54.70;;;;;;5049444;28;20239;-37
2022/08/07 12:05:32;;;;;;;1.35;1.23;;;14.90;54.70;;;;;;5047284;28;20230;-37
2022/08/07 12:08:11;;;;;;;1.33;1.20;;;14.90;54.70;;;;;;5052010;28;20191;-38
2022/08/07 12:10:50;;;;;;;1.38;1.20;;;14.80;54.70;;;;;;5053193;28;20200;-37
2022/08/07 12:13:27;;;;;;;1.00;0.90;;;14.90;54.70;;;;;;5052899;28;20207;-38
2022/08/07 12:16:06;;;;;;;1.30;1.02;;;14.90;54.70;;;;;;5062882;28;20249;-38
2022/08/07 12:18:45;;;;;;;1.75;1.30;;;14.90;54.70;;;;;;5072598;28;20226;-38
2022/08/07 12:21:28;;;;;;;1.35;1.20;;;14.90;54.80;;;;;;5072719;28;20205;-37
2022/08/07 12:24:05;;;;;;;1.55;1.20;;;14.90;54.70;;;;;;5072573;28;20666;-38
2022/08/07 12:26:44;;;;;;;1.67;1.10;;;14.90;54.70;;;;;;5072812;28;20218;-38
2022/08/07 12:29:20;;;;;;;1.23;1.10;;;14.80;54.70;;;;;;5072847;28;20205;-37
2022/08/07 12:31:58;;;;;;;1.30;1.10;;;14.80;54.70;;;;;;5072399;28;20202;-41
2022/08/07 12:34:34;;;;;;;1.42;1.13;;;14.80;54.70;;;;;;5072945;28;20792;-37
2022/08/07 12:37:07;;;;;;;1.50;1.30;;;14.80;54.70;;;;;;5072831;28;20198;-37
2022/08/07 12:39:39;;;;;;;1.48;1.02;;;14.80;54.70;;;;;;5072735;28;20199;-38
2022/08/07 12:42:12;;;;;;;1.23;1.05;;;14.80;54.70;;;;;;5072447;28;20225;-38
2022/08/07 12:44:46;;;;;;;1.25;1.00;;;14.70;54.70;;;;;;5072220;28;20190;-38
2022/08/07 12:47:27;;;;;;;0.80;0.80;;;14.70;54.70;;;;;;5072062;28;20191;-38
2022/08/07 12:50:08;;;;;;;1.30;1.02;;;14.70;54.70;;;;;;5071976;28;20191;-38
2022/08/07 12:52:49;;;;;;;1.38;1.00;;;14.70;54.70;;;;;;5072077;28;20198;-40
2022/08/07 12:55:26;;;;;;;1.40;1.30;;;14.70;54.60;;;;;;5071834;28;20219;-37
2022/08/07 12:58:01;;;;;;;1.48;1.10;;;14.70;54.60;;;;;;5071536;28;20219;-38
2022/08/07 13:00:42;;;;;;;1.15;1.00;;;14.70;54.70;;;;;;5072200;28;20194;-38
2022/08/07 13:03:39;;;;;;;2.15;1.27;;;14.70;54.70;;;;;;5071992;28;20199;-38
2022/08/07 13:06:25;;;;;;;1.02;0.93;;;14.70;54.70;;;;;;5067568;28;20710;-40
2022/08/07 13:09:03;;;;;;;1.48;1.10;;;14.70;54.60;;;;;;5071614;28;20796;-37
2022/08/07 13:11:55;;;;;;;1.27;1.00;;;14.60;54.60;;;;;;5071853;28;20260;-37
2022/08/07 13:14:36;;;;;;;1.27;1.10;;;14.60;54.60;;;;;;5071659;28;20219;-37
2022/08/07 13:17:13;;;;;;;1.98;1.20;;;14.60;55.20;;;;;;5071370;28;20229;-37
2022/08/07 13:19:52;;;;;;;1.83;1.10;;;14.60;54.60;;;;;;5070877;28;20233;-43
2022/08/07 13:22:29;;;;;;;1.40;1.00;;;14.60;54.60;;;;;;5071752;28;20654;-37
2022/08/07 13:25:05;;;;;;;1.33;1.00;;;14.60;54.60;;;;;;5071563;28;20245;-38
2022/08/07 13:27:40;;;;;;;1.50;1.05;;;14.60;54.60;;;;;;5071685;28;20202;-40
2022/08/07 13:30:14;;;;;;;1.30;1.00;;;14.60;54.60;;;;;;5071696;28;20194;-38
2022/08/07 13:32:50;;;;;;;1.30;1.20;;;14.60;54.60;;;;;;5051970;28;20265;-37
2022/08/07 13:35:32;;;;;;;1.60;1.10;;;14.50;54.60;;;;;;5051742;28;20211;-38
2022/08/07 13:38:15;;;;;;;1.23;1.00;;;14.50;54.70;;;;;;5051461;28;20246;-37